• Join FlightAware (Why Join?)
  • Login
  • US Flag 
05:13AM EDT


 

Airport Tracker/Info


-or-


 

Live Flight TrackerFlight Track Log ✈ EJA831 ✈ 12-Oct-2013 ✈ KAVL - KATL

Flight Track Log - Related Links

Times and Time Zones

All times are in EDT time to prevent confusion due to time zone crossing. See the EJA831 flight status page for this flight to view local times or setup timezone preferences in your user account.

Time Position Orientation Groundspeed Altitude Reporting Facility
EDT Latitude Longitude Course Direction KTS MPH feet Rate Location/Type
02:11PM 35.4639 -82.6083 223° Southwest 206 237 9,100  Level Atlanta Center
02:12PM 35.4061 -82.6756 223° Southwest 319 367 10,100 480 Climbing Atlanta Center
02:13PM 35.3400 -82.7353 216° Southwest 346 398 10,100  Level Atlanta Center
02:14PM 35.2614 -82.8000 214° Southwest 352 405 10,100 480 Level Atlanta Center
02:15PM 35.1869 -82.8697 217° Southwest 352 405 11,100 1,620 Climbing Atlanta Center
02:16PM 35.1083 -82.9369 215° Southwest 352 405 13,400 2,400 Climbing Atlanta Center
02:17PM 35.0275 -83.0089 216° Southwest 352 405 15,900 2,160 Climbing Atlanta Center
02:18PM 34.9508 -83.0758 216° Southwest 352 405 17,800 1,020 Climbing Atlanta Center
02:19PM 34.8636 -83.1478 214° Southwest 362 417 18,000 60 Climbing Atlanta Center
02:20PM 34.8019 -83.2597 236° Southwest 357 411 18,000  Level Atlanta Center
02:21PM 34.7900 -83.3811 263° West 345 397 18,000  Level Atlanta Center
02:22PM 34.7803 -83.5000 264° West 358 412 18,000  Level Atlanta Center
02:23PM 34.7347 -83.5864 237° Southwest 338 389 18,000  Level Atlanta Center
02:24PM 34.6431 -83.6575 213° Southwest 338 389 18,000  Level Atlanta Center
02:25PM 34.5514 -83.7186 209° Southwest 361 415 18,000  Level Atlanta Center
02:26PM 34.4578 -83.7769 207° Southwest 373 429 18,000 -300 Level Atlanta Center
02:27PM 34.3722 -83.8400 211° Southwest 373 429 17,500 -1,500 Descending Atlanta Center
02:28PM 34.2847 -83.8981 209° Southwest 368 423 15,100 -2,220 Descending Atlanta Center
02:29PM 34.1992 -83.9558 209° Southwest 362 417 13,100 -1,440 Descending Atlanta Center
02:30PM 34.1219 -84.0036 207° Southwest 331 381 12,300 -1,200 Descending Atlanta Center
02:30PM 34.0667 -84.0333 204° Southwest 308 354 11,200 -1,680 Descending Atlanta TRACON
02:31PM 34.0000 -84.0667 203° Southwest 289 333 9,600 -1,140 Descending Atlanta TRACON
02:32PM 33.9167 -84.0833 189° South 290 334 9,000 -960 Descending Atlanta TRACON
02:34PM 33.8333 -84.1000 189° South 296 341 7,600 -1,440 Descending Atlanta TRACON
02:35PM 33.7500 -84.1000 180° South 284 327 6,100 -1,320 Descending Atlanta TRACON
02:36PM 33.6833 -84.1333 203° Southwest 253 291 5,000 -600 Descending Atlanta TRACON
02:36PM 33.6500 -84.1833 231° Southwest 191 220 5,000 -600 Level Atlanta TRACON
02:37PM 33.6500 -84.2500 270° West 174 200 3,900 -1,200 Descending Atlanta TRACON
02:38PM 33.6500 -84.3000 270° West 168 193 2,700 -1,020 Descending Atlanta TRACON
02:39PM 33.6500 -84.3500 270° West 156 180 1,900 -780 Descending Atlanta TRACON
02:40PM 33.6500 -84.4000 270° West 120 138 1,200 -720 Descending Atlanta TRACON
02:42PM 33.6367 -84.4279 270° West  Level Estimated
02:49PM 33.6367 -84.4279 103° East  Level Estimated
02:50PM 33.6367 -84.4279 103° East  Level Estimated